This is the latest recevied weather packets stored in our database for station/object N4ZIQ. If no packets are shown the sender has not sent any weather packets the latest 10 day(s).
| Time | Temp. | Humidity | Pressure | Rain* | Wind** | Luminosity | Snow |
|---|---|---|---|---|---|---|---|
| 1778206847 | 25.56° C | 58% | 1014.2 hPa | 0 mm | - | 0 W/m² | - |
| 1778206558 | 25.56° C | 57% | 1014.1 hPa | 0 mm | - | 0 W/m² | - |
| 1778206249 | 25.56° C | 56% | 1014 hPa | 0 mm | - | 0 W/m² | - |
| 1778205948 | 25.56° C | 56% | 1014 hPa | 0 mm | - | 0 W/m² | - |
| 1778205653 | 25.56° C | 56% | 1014.1 hPa | 0 mm | - | 0 W/m² | - |
| 1778205347 | 25° C | 57% | 1014.1 hPa | 0 mm | - | 0 W/m² | - |
| 1778205048 | 24.44° C | 58% | 1014 hPa | 0 mm | - | 0 W/m² | - |
| 1778204770 | 24.44° C | 59% | 1014 hPa | 0 mm | - | 0 W/m² | - |
| 1778204448 | 23.89° C | 61% | 1014 hPa | 0 mm | - | 0 W/m² | - |
| 1778204148 | 24.44° C | 61% | 1013.9 hPa | 0 mm | - | 0 W/m² | - |
| 1778203860 | 25.56° C | 56% | 1013.8 hPa | 0 mm | - | 0 W/m² | - |
| 1778203548 | 26.11° C | 53% | 1013.8 hPa | 0 mm | - | 0 W/m² | - |
| 1778203248 | 26.67° C | 53% | 1013.7 hPa | 0 mm | - | 0 W/m² | - |
| 1778202949 | 26.67° C | 52% | 1013.7 hPa | 0 mm | - | 0 W/m² | - |
| 1778202649 | 26.67° C | 51% | 1013.7 hPa | 0 mm | - | 0 W/m² | - |
| 1778202347 | 27.22° C | 51% | 1013.7 hPa | 0 mm | - | 0 W/m² | - |
| 1778202057 | 27.22° C | 51% | 1013.7 hPa | 0 mm | - | 0 W/m² | - |
| 1778201747 | 27.22° C | 51% | 1013.6 hPa | 0 mm | - | 0 W/m² | - |
| 1778201447 | 27.78° C | 50% | 1013.5 hPa | 0 mm | - | 0 W/m² | - |
| 1778201179 | 28.33° C | 48% | 1013.5 hPa | 0 mm | - | 0 W/m² | - |
| 1778200848 | 28.33° C | 48% | 1013.5 hPa | 0 mm | - | 0 W/m² | - |
| 1778200547 | 28.33° C | 48% | 1013.5 hPa | 0 mm | - | 0 W/m² | - |
| 1778200261 | 28.33° C | 49% | 1013.4 hPa | 0 mm | - | 0 W/m² | - |
| 1778199948 | 27.78° C | 50% | 1013.4 hPa | 0 mm | - | 0 W/m² | - |
| 1778199647 | 27.78° C | 54% | 1013.3 hPa | 0 mm | - | 0 W/m² | - |
* Rain latest hour (hover to see other rain measurements)
** Current wind speed in m/s (hover to see current wind gust speed)